createdAt,value
2023-02-05T00:01:50.811Z,15.00
2023-02-05T00:04:19.178Z,15.20
2023-02-05T00:06:47.481Z,15.10
2023-02-05T00:09:16.035Z,15.60
2023-02-05T00:11:44.735Z,16.40
2023-02-05T00:14:13.162Z,16.60
2023-02-05T00:16:41.247Z,15.90
2023-02-05T00:19:09.412Z,15.60
2023-02-05T00:21:37.671Z,15.40
2023-02-05T00:24:06.314Z,14.90
2023-02-05T00:26:34.453Z,15.60
2023-02-05T00:29:03.101Z,15.70
2023-02-05T00:31:31.350Z,14.80
2023-02-05T00:33:59.572Z,14.80
2023-02-05T00:36:27.997Z,15.00
2023-02-05T00:38:56.557Z,14.90
2023-02-05T00:41:24.924Z,14.00
2023-02-05T00:43:53.272Z,13.80
2023-02-05T00:46:21.714Z,13.70
2023-02-05T00:48:49.853Z,14.30
2023-02-05T00:51:17.937Z,14.30
2023-02-05T00:53:46.134Z,14.40
2023-02-05T00:56:14.203Z,15.20
2023-02-05T00:58:47.637Z,15.40
2023-02-05T01:01:15.994Z,16.00
2023-02-05T01:03:44.342Z,15.00
2023-02-05T01:06:12.565Z,15.90
2023-02-05T01:08:41.090Z,18.00
2023-02-05T01:11:10.657Z,16.50
2023-02-05T01:13:40.015Z,18.00
2023-02-05T01:16:10.744Z,18.70
2023-02-05T01:18:39.067Z,18.90
2023-02-05T01:21:07.552Z,17.00
2023-02-05T01:23:36.518Z,16.50
2023-02-05T01:26:05.952Z,16.60
2023-02-05T01:28:34.220Z,16.30
2023-02-05T01:31:02.622Z,17.70
2023-02-05T01:33:31.156Z,17.80
2023-02-05T01:35:59.507Z,18.50
2023-02-05T01:38:27.677Z,17.70
2023-02-05T01:41:00.182Z,18.20
2023-02-05T01:43:29.699Z,18.70
2023-02-05T01:45:57.952Z,19.30
2023-02-05T01:48:29.228Z,20.70
2023-02-05T01:50:58.980Z,21.40
2023-02-05T01:53:30.191Z,21.30
2023-02-05T01:56:01.398Z,20.90
2023-02-05T01:58:33.597Z,21.20
2023-02-05T02:01:01.829Z,22.30
2023-02-05T02:03:30.792Z,22.20
2023-02-05T02:05:59.203Z,22.90
2023-02-05T02:08:27.522Z,21.90
2023-02-05T02:10:55.705Z,21.10
2023-02-05T02:13:24.361Z,21.00
2023-02-05T02:15:53.437Z,20.90
2023-02-05T02:18:26.927Z,21.20
2023-02-05T02:21:26.817Z,20.40
2023-02-05T02:24:03.200Z,21.80
2023-02-05T02:26:40.828Z,19.90
2023-02-05T02:29:11.555Z,21.10
2023-02-05T02:31:46.056Z,21.30
2023-02-05T02:34:19.632Z,21.80
2023-02-05T02:37:31.001Z,21.80
2023-02-05T02:40:38.985Z,20.60
2023-02-05T02:43:14.992Z,19.90
2023-02-05T02:46:24.872Z,19.20
2023-02-05T02:48:53.212Z,18.20
2023-02-05T02:51:21.361Z,18.60
2023-02-05T02:53:55.135Z,18.70
2023-02-05T02:56:24.845Z,19.60
2023-02-05T02:58:56.793Z,18.20
2023-02-05T03:01:26.230Z,16.50
2023-02-05T03:03:58.721Z,17.30
2023-02-05T03:06:27.132Z,16.80
2023-02-05T03:09:17.114Z,16.70
2023-02-05T03:11:45.694Z,16.10
2023-02-05T03:14:14.403Z,16.30
2023-02-05T03:16:42.992Z,16.70
2023-02-05T03:19:11.091Z,15.70
2023-02-05T03:21:44.669Z,16.00
2023-02-05T03:24:12.851Z,15.50
2023-02-05T03:26:42.245Z,15.30
2023-02-05T03:29:18.825Z,14.70
2023-02-05T03:31:49.350Z,14.90
2023-02-05T03:35:01.311Z,14.60
2023-02-05T03:37:58.573Z,14.60
2023-02-05T03:40:56.734Z,14.70
2023-02-05T03:43:59.277Z,14.60
2023-02-05T03:46:42.715Z,14.70
2023-02-05T03:49:23.341Z,16.20
2023-02-05T03:52:35.807Z,13.70
2023-02-05T03:55:27.172Z,14.10
2023-02-05T03:58:00.119Z,14.70
2023-02-05T04:00:29.045Z,14.80
2023-02-05T04:02:59.043Z,15.70
2023-02-05T04:05:35.068Z,15.40
2023-02-05T04:08:04.711Z,15.30
2023-02-05T04:10:37.585Z,15.80
2023-02-05T04:13:06.989Z,16.70
2023-02-05T04:15:35.941Z,16.20
2023-02-05T04:18:07.181Z,16.00
2023-02-05T04:20:35.654Z,14.90
2023-02-05T04:23:04.038Z,14.60
2023-02-05T04:25:34.310Z,15.70
2023-02-05T04:28:03.040Z,14.40
2023-02-05T04:30:32.799Z,14.50
2023-02-05T04:33:02.978Z,14.40
2023-02-05T04:35:32.617Z,13.90
2023-02-05T04:38:01.866Z,14.80
2023-02-05T04:40:30.815Z,15.40
2023-02-05T04:42:59.074Z,16.10
2023-02-05T04:45:31.159Z,14.80
2023-02-05T04:48:00.578Z,14.80
2023-02-05T04:50:28.938Z,14.90
2023-02-05T04:52:57.551Z,13.60
2023-02-05T04:55:25.618Z,14.80
2023-02-05T04:57:54.107Z,14.80
2023-02-05T05:00:22.194Z,13.90
2023-02-05T05:02:51.095Z,13.80
2023-02-05T05:05:19.446Z,13.70
2023-02-05T05:07:49.128Z,14.20
2023-02-05T05:10:17.553Z,14.10
2023-02-05T05:12:45.800Z,15.00
2023-02-05T05:15:14.174Z,14.40
2023-02-05T05:17:42.760Z,14.20
2023-02-05T05:20:11.424Z,14.00
2023-02-05T05:22:40.999Z,14.50
2023-02-05T05:25:09.441Z,13.50
2023-02-05T05:27:37.555Z,14.10
2023-02-05T05:30:06.337Z,13.80
2023-02-05T05:32:35.060Z,13.40
2023-02-05T05:35:04.004Z,13.40
2023-02-05T05:37:33.007Z,13.30
2023-02-05T05:40:19.825Z,13.20
2023-02-05T05:43:06.329Z,13.50
2023-02-05T05:45:34.975Z,13.30
2023-02-05T05:48:03.792Z,13.80
2023-02-05T05:50:32.000Z,13.60
2023-02-05T05:53:03.517Z,14.10
2023-02-05T05:55:31.805Z,13.40
2023-02-05T05:58:00.229Z,14.20
2023-02-05T06:00:28.444Z,14.30
2023-02-05T06:02:56.687Z,14.30
2023-02-05T06:05:24.837Z,15.20
2023-02-05T06:07:53.744Z,14.20
2023-02-05T06:10:22.638Z,14.80
2023-02-05T06:13:18.256Z,14.30
2023-02-05T06:15:49.088Z,14.90
2023-02-05T06:18:18.009Z,14.80
2023-02-05T06:20:46.016Z,15.00
2023-02-05T06:23:14.087Z,15.30
2023-02-05T06:25:42.538Z,14.80
2023-02-05T06:28:10.729Z,14.30
2023-02-05T06:30:39.799Z,14.80
2023-02-05T06:33:07.912Z,15.80
2023-02-05T06:35:37.160Z,15.80
2023-02-05T06:38:05.894Z,14.00
2023-02-05T06:40:34.195Z,15.40
2023-02-05T06:43:02.307Z,15.50
2023-02-05T06:45:30.630Z,16.50
2023-02-05T06:47:59.274Z,16.40
2023-02-05T06:50:28.202Z,15.30
2023-02-05T06:52:56.455Z,16.10
2023-02-05T06:55:24.729Z,15.50
2023-02-05T06:57:52.767Z,16.20
2023-02-05T07:00:20.995Z,16.70
2023-02-05T07:02:49.421Z,15.70
2023-02-05T07:05:17.821Z,15.50
2023-02-05T07:07:46.094Z,15.70
2023-02-05T07:10:15.486Z,15.40
2023-02-05T07:12:45.408Z,14.00
2023-02-05T07:15:17.340Z,15.00
2023-02-05T07:17:45.620Z,14.50
2023-02-05T07:20:13.813Z,13.00
2023-02-05T07:22:42.558Z,14.10
2023-02-05T07:25:10.910Z,13.80
2023-02-05T07:27:39.778Z,14.90
2023-02-05T07:30:08.713Z,25.60
2023-02-05T07:32:37.544Z,20.30
2023-02-05T07:35:05.969Z,17.30
2023-02-05T07:37:34.547Z,19.40
2023-02-05T07:40:03.037Z,24.30
2023-02-05T07:42:31.741Z,55.20
2023-02-05T07:45:02.551Z,32.00
2023-02-05T07:47:31.516Z,21.70
2023-02-05T07:49:59.627Z,28.30
2023-02-05T07:52:27.984Z,53.80
2023-02-05T07:54:56.029Z,55.00
2023-02-05T07:57:26.642Z,52.60
2023-02-05T07:59:54.814Z,72.10
2023-02-05T08:02:23.301Z,34.10
2023-02-05T08:04:51.383Z,28.70
2023-02-05T08:07:19.497Z,46.00
2023-02-05T08:09:47.706Z,25.70
2023-02-05T08:12:15.788Z,99.80
2023-02-05T08:14:44.783Z,150.80
2023-02-05T08:17:13.071Z,59.10
2023-02-05T08:19:42.289Z,46.20
2023-02-05T08:22:10.738Z,36.90
2023-02-05T08:24:38.979Z,54.10
2023-02-05T08:27:07.135Z,32.10
2023-02-05T08:29:35.250Z,67.60
2023-02-05T08:32:03.504Z,84.30
2023-02-05T08:34:31.739Z,61.90
2023-02-05T08:37:00.046Z,54.30
2023-02-05T08:39:28.434Z,58.00
2023-02-05T08:41:57.166Z,42.60
2023-02-05T08:44:26.040Z,134.60
2023-02-05T08:46:54.504Z,58.30
2023-02-05T08:49:22.712Z,68.00
2023-02-05T08:51:50.881Z,90.70
2023-02-05T08:54:19.151Z,40.80
2023-02-05T08:56:49.155Z,57.50
2023-02-05T08:59:17.156Z,62.40
2023-02-05T09:01:45.379Z,78.90
2023-02-05T09:04:14.892Z,66.40
2023-02-05T09:06:43.321Z,33.30
2023-02-05T09:09:11.784Z,21.10
2023-02-05T09:11:41.736Z,38.70
2023-02-05T09:14:10.267Z,58.40
2023-02-05T09:16:39.105Z,54.40
2023-02-05T09:19:07.499Z,53.70
2023-02-05T09:21:36.800Z,30.90
2023-02-05T09:24:05.685Z,22.40
2023-02-05T09:26:34.235Z,26.30
2023-02-05T09:29:03.051Z,61.10
2023-02-05T09:31:31.721Z,30.60
2023-02-05T09:34:03.078Z,40.80
2023-02-05T09:36:31.730Z,21.60
2023-02-05T09:39:13.464Z,24.80
2023-02-05T09:41:57.297Z,25.30
2023-02-05T09:44:37.591Z,28.20
2023-02-05T09:47:15.788Z,21.90
2023-02-05T09:50:03.035Z,31.00
2023-02-05T09:52:35.732Z,24.90
2023-02-05T09:55:25.931Z,71.20
2023-02-05T09:57:56.290Z,25.10
2023-02-05T10:00:28.732Z,63.70
2023-02-05T10:03:08.365Z,91.00
2023-02-05T10:05:51.818Z,40.40
2023-02-05T10:08:30.115Z,29.10
2023-02-05T10:10:58.679Z,23.00
2023-02-05T10:13:36.916Z,19.60
2023-02-05T10:16:30.839Z,14.60
2023-02-05T10:19:24.049Z,24.30
2023-02-05T10:22:02.482Z,30.50
2023-02-05T10:24:33.686Z,18.10
2023-02-05T10:27:09.785Z,24.10
2023-02-05T10:29:43.813Z,24.00
2023-02-05T10:32:20.349Z,25.90
2023-02-05T10:35:04.061Z,38.10
2023-02-05T10:37:41.170Z,21.10
2023-02-05T10:40:18.138Z,13.30
2023-02-05T10:43:08.485Z,10.10
2023-02-05T10:45:36.871Z,9.20
2023-02-05T10:48:26.656Z,9.50
2023-02-05T10:51:06.009Z,9.40
2023-02-05T10:53:36.391Z,11.50
2023-02-05T10:56:05.177Z,11.70
2023-02-05T10:58:37.913Z,26.30
2023-02-05T11:01:15.776Z,9.30
2023-02-05T11:03:49.785Z,7.80
2023-02-05T11:06:17.853Z,15.20
2023-02-05T11:08:46.721Z,19.10
2023-02-05T11:11:25.394Z,111.80
2023-02-05T11:13:57.379Z,86.40
2023-02-05T11:16:42.343Z,28.20
2023-02-05T11:19:24.825Z,18.90
2023-02-05T11:22:01.797Z,18.20
2023-02-05T11:24:31.348Z,24.80
2023-02-05T11:27:29.104Z,14.50
2023-02-05T11:30:00.347Z,15.50
2023-02-05T11:32:36.744Z,13.90
2023-02-05T11:35:20.054Z,11.30
2023-02-05T11:38:22.860Z,11.10
2023-02-05T11:40:52.719Z,21.60
2023-02-05T11:43:41.194Z,27.70
2023-02-05T11:46:10.585Z,9.30
2023-02-05T11:48:38.760Z,10.30
2023-02-05T11:51:12.795Z,10.80
2023-02-05T11:54:23.671Z,9.30
2023-02-05T11:57:05.080Z,8.00
2023-02-05T11:59:35.164Z,8.20
2023-02-05T12:02:25.990Z,11.20
2023-02-05T12:05:15.063Z,24.10
2023-02-05T12:07:52.617Z,11.80
2023-02-05T12:11:03.939Z,30.40
2023-02-05T12:13:45.574Z,36.60
2023-02-05T12:16:48.390Z,17.20
2023-02-05T12:19:30.954Z,24.10
2023-02-05T12:22:38.105Z,21.80
2023-02-05T12:25:24.640Z,7.60
2023-02-05T12:27:58.238Z,9.80
2023-02-05T12:30:44.239Z,18.70
2023-02-05T12:33:32.018Z,14.30
2023-02-05T12:36:17.127Z,25.50
2023-02-05T12:39:02.430Z,19.40
2023-02-05T12:41:42.692Z,35.20
2023-02-05T12:44:25.162Z,41.70
2023-02-05T12:47:15.513Z,29.40
2023-02-05T12:50:10.802Z,23.10
2023-02-05T12:52:54.605Z,18.60
2023-02-05T12:55:41.135Z,27.20
2023-02-05T12:58:13.121Z,28.90
2023-02-05T13:00:45.333Z,31.90
2023-02-05T13:03:38.396Z,9.20
2023-02-05T13:06:13.190Z,22.90
2023-02-05T13:08:51.481Z,28.40
2023-02-05T13:11:38.739Z,30.30
2023-02-05T13:14:14.692Z,11.90
2023-02-05T13:16:48.981Z,54.10
2023-02-05T13:19:41.070Z,76.80
2023-02-05T13:22:54.837Z,56.90
2023-02-05T13:25:40.582Z,23.30
2023-02-05T13:28:40.233Z,59.70
2023-02-05T13:31:27.207Z,44.40
2023-02-05T13:33:57.051Z,40.70
2023-02-05T13:36:25.184Z,40.90
2023-02-05T13:39:10.667Z,88.40
2023-02-05T13:42:18.636Z,88.00
2023-02-05T13:45:12.064Z,120.70
2023-02-05T13:48:06.058Z,72.70
2023-02-05T13:50:56.477Z,72.30
2023-02-05T13:54:10.646Z,101.40
2023-02-05T13:56:54.214Z,52.70
2023-02-05T13:59:46.595Z,67.60
2023-02-05T14:02:26.955Z,56.60
2023-02-05T14:04:55.177Z,48.70
2023-02-05T14:07:29.738Z,42.90
2023-02-05T14:12:31.061Z,36.20
2023-02-05T14:15:20.238Z,54.10
2023-02-05T14:17:48.381Z,57.00
2023-02-05T14:20:26.188Z,54.20
2023-02-05T14:23:01.172Z,47.50
2023-02-05T14:25:35.994Z,37.40
2023-02-05T14:28:16.839Z,42.70
2023-02-05T14:30:49.254Z,35.60
2023-02-05T14:33:31.431Z,30.20
2023-02-05T14:36:18.489Z,57.10
2023-02-05T14:39:05.067Z,42.80
2023-02-05T14:41:39.067Z,47.60
2023-02-05T14:44:18.764Z,53.00
2023-02-05T14:47:06.214Z,32.20
2023-02-05T14:49:39.364Z,28.50
2023-02-05T14:52:17.001Z,27.50
2023-02-05T14:54:51.173Z,32.00
2023-02-05T14:57:22.468Z,20.40
2023-02-05T14:59:55.784Z,31.20
2023-02-05T15:02:55.703Z,62.20
2023-02-05T15:05:52.489Z,27.00
2023-02-05T15:08:28.843Z,20.80
2023-02-05T15:11:30.591Z,18.30
2023-02-05T15:14:21.268Z,18.80
2023-02-05T15:17:30.705Z,19.40
2023-02-05T15:20:20.292Z,17.20
2023-02-05T15:22:52.595Z,17.50
2023-02-05T15:25:30.957Z,18.60
2023-02-05T15:28:23.987Z,17.40
2023-02-05T15:31:04.601Z,42.30
2023-02-05T15:33:39.689Z,21.30
2023-02-05T15:36:15.956Z,19.80
2023-02-05T15:38:50.340Z,27.90
2023-02-05T15:41:18.420Z,22.80
2023-02-05T15:44:00.581Z,19.80
2023-02-05T15:46:32.832Z,14.50
2023-02-05T15:49:01.330Z,16.40
2023-02-05T15:51:32.262Z,49.60
2023-02-05T15:54:13.451Z,21.80
2023-02-05T15:56:44.624Z,26.40
2023-02-05T15:59:16.071Z,17.90
2023-02-05T16:01:50.341Z,14.80
2023-02-05T16:04:22.713Z,16.60
2023-02-05T16:06:55.260Z,16.00
2023-02-05T16:09:25.265Z,14.00
2023-02-05T16:11:54.286Z,14.50
2023-02-05T16:14:28.543Z,15.30
2023-02-05T16:17:22.040Z,15.20
2023-02-05T16:19:52.158Z,20.40
2023-02-05T16:22:30.692Z,14.90
2023-02-05T16:25:01.445Z,15.60
2023-02-05T16:27:50.112Z,14.00
2023-02-05T16:30:20.925Z,14.50
2023-02-05T16:32:49.223Z,14.90
2023-02-05T16:35:22.159Z,16.00
2023-02-05T16:37:50.670Z,14.10
2023-02-05T16:40:35.859Z,14.10
2023-02-05T16:43:36.842Z,16.00
2023-02-05T16:46:07.987Z,19.40
2023-02-05T16:48:41.926Z,15.00
2023-02-05T16:51:26.996Z,19.20
2023-02-05T16:53:55.907Z,19.60
2023-02-05T16:56:33.039Z,23.20
2023-02-05T16:59:01.837Z,16.30
2023-02-05T17:01:36.432Z,19.60
2023-02-05T17:04:05.123Z,15.40
2023-02-05T17:06:34.988Z,13.90
2023-02-05T17:09:05.391Z,14.70
2023-02-05T17:11:38.370Z,16.00
2023-02-05T17:14:23.174Z,16.30
2023-02-05T17:17:02.226Z,13.60
2023-02-05T17:19:34.123Z,13.80
2023-02-05T17:22:15.340Z,13.50
2023-02-05T17:24:48.093Z,13.60
2023-02-05T17:27:17.856Z,14.00
2023-02-05T17:29:46.141Z,14.00
2023-02-05T17:32:18.619Z,13.60
2023-02-05T17:34:55.678Z,14.20
2023-02-05T17:37:24.443Z,15.20
2023-02-05T17:39:55.702Z,13.90
2023-02-05T17:42:25.656Z,15.50
2023-02-05T17:44:55.129Z,14.40
2023-02-05T17:47:24.781Z,14.60
2023-02-05T17:49:54.223Z,14.40
2023-02-05T17:52:24.294Z,14.30
2023-02-05T17:54:54.549Z,14.70
2023-02-05T17:57:26.607Z,14.40
2023-02-05T17:59:57.318Z,14.60
2023-02-05T18:02:29.373Z,14.20
2023-02-05T18:05:01.641Z,14.20
2023-02-05T18:07:34.233Z,13.90
2023-02-05T18:10:06.527Z,14.30
2023-02-05T18:12:36.742Z,16.90
2023-02-05T18:15:07.442Z,14.80
2023-02-05T18:17:38.593Z,16.10
2023-02-05T18:20:09.373Z,14.50
2023-02-05T18:22:39.363Z,14.20
2023-02-05T18:25:09.646Z,14.30
2023-02-05T18:27:39.468Z,14.60
2023-02-05T18:30:09.335Z,14.20
2023-02-05T18:32:39.034Z,15.00
2023-02-05T18:35:12.980Z,14.40
2023-02-05T18:37:43.643Z,16.60
2023-02-05T18:40:15.111Z,15.80
2023-02-05T18:42:47.459Z,16.00
2023-02-05T18:45:16.992Z,16.30
2023-02-05T18:48:04.105Z,15.70
2023-02-05T18:50:33.776Z,16.00
2023-02-05T18:53:03.685Z,14.70
2023-02-05T18:55:35.930Z,15.00
2023-02-05T18:58:05.191Z,15.00
2023-02-05T19:00:35.054Z,16.70
2023-02-05T19:03:04.501Z,16.70
2023-02-05T19:05:35.098Z,20.30
2023-02-05T19:08:06.494Z,15.80
2023-02-05T19:10:36.957Z,17.10
2023-02-05T19:13:05.556Z,15.90
2023-02-05T19:15:34.965Z,15.70
2023-02-05T19:18:03.521Z,16.50
2023-02-05T19:20:31.860Z,16.60
2023-02-05T19:23:00.795Z,16.80
2023-02-05T19:25:30.331Z,17.20
2023-02-05T19:27:59.206Z,17.80
2023-02-05T19:30:27.786Z,17.00
2023-02-05T19:32:56.135Z,18.40
2023-02-05T19:35:30.725Z,18.20
2023-02-05T19:38:01.260Z,16.70
2023-02-05T19:40:30.451Z,17.70
2023-02-05T19:43:02.246Z,20.00
2023-02-05T19:45:30.471Z,19.20
2023-02-05T19:47:59.104Z,19.80
2023-02-05T19:50:27.556Z,18.60
2023-02-05T19:52:55.926Z,18.00
2023-02-05T19:55:24.667Z,18.80
2023-02-05T19:57:53.680Z,19.20
2023-02-05T20:00:23.238Z,17.70
2023-02-05T20:02:55.789Z,17.50
2023-02-05T20:05:24.321Z,18.10
2023-02-05T20:07:55.531Z,18.50
2023-02-05T20:10:24.406Z,18.30
2023-02-05T20:12:53.334Z,17.80
2023-02-05T20:15:22.693Z,17.30
2023-02-05T20:17:52.354Z,17.30
2023-02-05T20:20:44.727Z,18.50
2023-02-05T20:23:10.006Z,16.60
2023-02-05T20:25:38.479Z,18.20
2023-02-05T20:28:06.886Z,17.70
2023-02-05T20:30:53.875Z,17.30
2023-02-05T20:33:22.316Z,16.80
2023-02-05T20:35:50.439Z,17.00
2023-02-05T20:38:18.607Z,16.50
2023-02-05T20:40:46.820Z,16.40
2023-02-05T20:43:15.527Z,16.00
2023-02-05T20:45:44.817Z,17.70
2023-02-05T20:48:13.829Z,15.40
2023-02-05T20:50:42.178Z,17.50
2023-02-05T20:53:12.398Z,18.40
2023-02-05T20:55:41.040Z,17.30
2023-02-05T20:58:09.293Z,17.30
2023-02-05T21:00:38.093Z,17.00
2023-02-05T21:03:06.573Z,16.60
2023-02-05T21:05:34.723Z,18.10
2023-02-05T21:08:06.657Z,17.80
2023-02-05T21:10:35.695Z,16.70
2023-02-05T21:13:04.100Z,16.80
2023-02-05T21:15:33.506Z,18.40
2023-02-05T21:18:01.682Z,18.20
2023-02-05T21:20:29.913Z,16.90
2023-02-05T21:22:58.419Z,17.40
2023-02-05T21:25:27.195Z,19.20
2023-02-05T21:27:55.374Z,17.90
2023-02-05T21:30:24.163Z,18.20
2023-02-05T21:32:53.107Z,19.30
2023-02-05T21:35:21.337Z,18.20
2023-02-05T21:37:49.444Z,18.30
2023-02-05T21:40:18.124Z,19.50
2023-02-05T21:42:46.394Z,19.20
2023-02-05T21:45:14.847Z,17.90
2023-02-05T21:47:43.036Z,17.70
2023-02-05T21:50:11.146Z,17.40
2023-02-05T21:52:39.313Z,18.10
2023-02-05T21:55:08.180Z,18.40
2023-02-05T21:57:36.297Z,18.40
2023-02-05T22:00:04.872Z,18.30
2023-02-05T22:02:40.213Z,17.50
2023-02-05T22:05:09.244Z,17.70
2023-02-05T22:07:37.458Z,17.90
2023-02-05T22:10:08.491Z,17.80
2023-02-05T22:12:37.239Z,17.70
2023-02-05T22:15:06.227Z,19.30
2023-02-05T22:17:38.374Z,19.40
2023-02-05T22:20:07.255Z,17.10
2023-02-05T22:22:55.389Z,16.60
2023-02-05T22:25:23.526Z,15.80
2023-02-05T22:27:52.463Z,18.40
2023-02-05T22:30:20.588Z,17.50
2023-02-05T22:32:49.153Z,15.50
2023-02-05T22:35:17.840Z,16.30
2023-02-05T22:37:47.074Z,17.30
2023-02-05T22:40:20.717Z,16.30
2023-02-05T22:42:49.578Z,17.50
2023-02-05T22:45:19.818Z,15.50
2023-02-05T22:47:48.452Z,15.20
2023-02-05T22:50:17.106Z,16.40
2023-02-05T22:52:46.709Z,16.50
2023-02-05T22:55:17.750Z,14.90
2023-02-05T22:57:50.127Z,17.80
2023-02-05T23:00:23.081Z,16.80
2023-02-05T23:02:52.211Z,16.50
2023-02-05T23:05:21.165Z,18.00
2023-02-05T23:07:51.066Z,15.60
2023-02-05T23:10:21.779Z,16.40
2023-02-05T23:12:51.466Z,14.50
2023-02-05T23:15:21.421Z,15.70
2023-02-05T23:17:50.877Z,14.20
2023-02-05T23:20:20.040Z,14.60
2023-02-05T23:22:48.521Z,16.60
2023-02-05T23:25:17.067Z,15.10
2023-02-05T23:27:45.478Z,13.70
2023-02-05T23:30:14.839Z,14.60
2023-02-05T23:32:57.266Z,14.60
2023-02-05T23:35:25.811Z,15.60
2023-02-05T23:37:54.128Z,14.50
2023-02-05T23:40:22.374Z,13.60
2023-02-05T23:42:50.982Z,13.70
2023-02-05T23:45:19.222Z,12.00
2023-02-05T23:47:47.458Z,14.50
2023-02-05T23:50:16.396Z,14.30
2023-02-05T23:52:45.010Z,14.80
2023-02-05T23:55:13.376Z,14.30
2023-02-05T23:57:42.387Z,13.90
